»·PEaware :: N77CE KMYF-KSBA

N77CE :: KMYF-KSBA

FLIGHT INFORMATION

Flight Status: Arrived
Operator: Privately registered:
United States
More flights under this callsign
Pilot: Joshua G. (28340)
Aircraft: BEECH AIRCRAFT A90-E90 KING AIR
(BE9L)
More flights by this aircraft type
Origin: KMYF Montgomery
United States
Destination: KSBA Santa Barbara Mun
United States
More flights between these airports :: More routes between these airports
Route: PARDZ2 PARDZ SXC WEEZL KWANG
File this flight plan on PilotEdge
Remarks:
Altitude:
(Current/Filed)
12,000ft
Speed:
(Current/Filed)
220kts
Departed: 05-Aug-20 12:05 AM
Arrived: 05-Aug-20 12:58 AM
Distance/Time
Traveled:
166nm/0:52
Distance/Time
To Go:
Arrived

Flight Plot

Page will automatically refresh every two minutes.

Flight plan parsing failed; only flown route is shown


Map Options




Map Legend


Flown Route
Filed Route
Departure Airport
Arrival Airport
Navaid (VOR, NDB)
Fix

Horizontal Profiles

Position Reports

Time Latitude Longitude Heading Altitude Ground
Speed
04-Aug-20 23:40 32.810506 -117.138451 3 417ft 0kts
04-Aug-20 23:41 32.810506 -117.138451 3 417ft 0kts
04-Aug-20 23:42 32.810506 -117.138451 3 417ft 0kts
04-Aug-20 23:43 32.810506 -117.138451 3 417ft 0kts
04-Aug-20 23:44 32.810506 -117.138451 3 417ft 0kts
04-Aug-20 23:45 32.810506 -117.138451 3 417ft 0kts
04-Aug-20 23:46 32.810506 -117.138451 3 417ft 0kts
04-Aug-20 23:47 32.810506 -117.138451 3 417ft 0kts
04-Aug-20 23:48 32.810506 -117.138451 3 417ft 0kts
04-Aug-20 23:49 32.810506 -117.138451 3 417ft 0kts
04-Aug-20 23:50 32.810506 -117.138451 3 417ft 0kts
04-Aug-20 23:51 32.810506 -117.138451 3 417ft 0kts
04-Aug-20 23:52 32.810506 -117.138451 3 417ft 0kts
04-Aug-20 23:53 32.810506 -117.138451 3 417ft 0kts
04-Aug-20 23:54 32.810506 -117.138451 3 417ft 0kts
04-Aug-20 23:55 32.810506 -117.138451 3 417ft 0kts
04-Aug-20 23:56 32.810506 -117.138451 3 417ft 0kts
04-Aug-20 23:57 32.811693 -117.137916 25 417ft 6kts
04-Aug-20 23:58 32.812170 -117.135203 115 418ft 18kts
04-Aug-20 23:59 32.812149 -117.131440 24 422ft 0kts
05-Aug-20 00:00 32.812150 -117.131440 23 422ft 0kts
05-Aug-20 00:01 32.812774 -117.131161 355 424ft 3kts
05-Aug-20 00:02 32.812894 -117.131282 294 424ft 0kts
05-Aug-20 00:03 32.812894 -117.131282 294 424ft 0kts
05-Aug-20 00:04 32.816329 -117.140030 295 420ft 110kts
05-Aug-20 00:05 32.827379 -117.179644 280 1842ft 136kts
05-Aug-20 00:06 32.832966 -117.224738 280 3349ft 139kts
05-Aug-20 00:07 32.842589 -117.268457 302 4925ft 137kts
05-Aug-20 00:08 32.862141 -117.306768 300 6415ft 137kts
05-Aug-20 00:09 32.881105 -117.346212 299 7792ft 137kts
05-Aug-20 00:10 32.899926 -117.385576 298 9050ft 137kts
05-Aug-20 00:11 32.919312 -117.426204 293 10115ft 143kts
05-Aug-20 00:12 32.937596 -117.464401 295 11524ft 122kts
05-Aug-20 00:13 32.955880 -117.503044 297 11997ft 157kts
05-Aug-20 00:14 32.979789 -117.553047 297 11990ft 183kts
05-Aug-20 00:15 33.005579 -117.607163 297 11987ft 190kts
05-Aug-20 00:16 33.031956 -117.662714 297 11991ft 194kts
05-Aug-20 00:17 33.058886 -117.719525 297 11991ft 197kts
05-Aug-20 00:18 33.099068 -117.765561 316 11991ft 203kts
05-Aug-20 00:19 33.142460 -117.809549 316 11991ft 206kts
05-Aug-20 00:20 33.186083 -117.853974 316 11992ft 206kts
05-Aug-20 00:21 33.212958 -117.913180 303 11999ft 204kts
05-Aug-20 00:22 33.250061 -117.964986 309 12004ft 205kts
05-Aug-20 00:23 33.287258 -118.017100 307 12009ft 205kts
05-Aug-20 00:24 33.323840 -118.069544 307 12009ft 205kts
05-Aug-20 00:25 33.360308 -118.121988 307 12006ft 205kts
05-Aug-20 00:26 33.396959 -118.174769 307 12005ft 205kts
05-Aug-20 00:27 33.433478 -118.227439 307 12007ft 205kts
05-Aug-20 00:28 33.470081 -118.280306 307 12012ft 205kts
05-Aug-20 00:29 33.506491 -118.332971 307 12017ft 205kts
05-Aug-20 00:30 33.542931 -118.385759 307 12017ft 205kts
05-Aug-20 00:31 33.579412 -118.438684 307 12016ft 205kts
05-Aug-20 00:32 33.615733 -118.491449 307 12014ft 205kts
05-Aug-20 00:33 33.652203 -118.544510 307 12008ft 205kts
05-Aug-20 00:34 33.688880 -118.597953 307 12001ft 205kts
05-Aug-20 00:35 33.723695 -118.648757 307 11995ft 205kts
05-Aug-20 00:36 33.760064 -118.701901 307 11992ft 206kts
05-Aug-20 00:37 33.796411 -118.755090 307 11992ft 206kts
05-Aug-20 00:38 33.832997 -118.808716 307 11769ft 215kts
05-Aug-20 00:39 33.873050 -118.867296 308 10773ft 236kts
05-Aug-20 00:40 33.915766 -118.929425 309 9615ft 244kts
05-Aug-20 00:41 33.960542 -118.990133 309 8535ft 241kts
05-Aug-20 00:42 34.000221 -119.052531 306 7860ft 233kts
05-Aug-20 00:43 34.040295 -119.113553 308 7129ft 231kts
05-Aug-20 00:44 34.081113 -119.174098 308 6467ft 230kts
05-Aug-20 00:45 34.121858 -119.234518 308 5849ft 229kts
05-Aug-20 00:46 34.161971 -119.294107 308 5295ft 228kts
05-Aug-20 00:47 34.201639 -119.353378 308 4798ft 226kts
05-Aug-20 00:48 34.241231 -119.412442 308 4338ft 225kts
05-Aug-20 00:49 34.280144 -119.470551 308 4079ft 216kts
05-Aug-20 00:50 34.314236 -119.528779 291 3980ft 208kts
05-Aug-20 00:51 34.337284 -119.592477 294 3977ft 205kts
05-Aug-20 00:52 34.360329 -119.656495 294 3778ft 213kts
05-Aug-20 00:53 34.386622 -119.717844 290 3195ft 198kts
05-Aug-20 00:54 34.409415 -119.767202 310 3149ft 129kts
05-Aug-20 00:55 34.426572 -119.802793 291 1190ft 125kts
05-Aug-20 00:56 34.427754 -119.841514 269 14ft 64kts
05-Aug-20 00:57 34.428859 -119.844560 64 14ft 11kts
05-Aug-20 00:58 34.431256 -119.837976 68 14ft 21kts
05-Aug-20 00:59 34.432904 -119.835855 246 14ft 0kts
05-Aug-20 01:00 34.432904 -119.835855 246 14ft 0kts
05-Aug-20 01:01 34.432904 -119.835855 246 14ft 0kts
05-Aug-20 01:02 34.432904 -119.835855 246 14ft 0kts
05-Aug-20 01:03 34.432904 -119.835855 246 14ft 0kts
05-Aug-20 01:04 34.432904 -119.835855 246 14ft 0kts

Navigation Log

Ident Type
Flight plan parsing failed, navigation log unavailable